Chuckey, TN

4:11 AM EDT on June 02, 2015 (GMT -0400)
Old Jonesboro Rd | | Change Station
CLOSE
Current Station
Personal Weather Station
Location: Chuckey, TN
Elevation: 1365 ft
Nearby Weather Stations

Elev 1365 ft 36.16 °N, 82.69 °W | Updated 34 seconds ago

Mostly Cloudy
Mostly Cloudy
65.0 °F
Feels Like 65.0 °F
N
0.0
Wind Variable Wind from ENE
Gusts 0.0 mph

Today
High -- | Low -- °F
--% Chance of Precip.
Yesterday
High -- | Low -- °F
Precip. -- in
6:14 AM 8:42 PM
Full, 100% visible
Pressure 29.97 in
Visibility 3.0 miles
Clouds Scattered Clouds 400 ft
Mostly Cloudy 600 ft
Dew Point 61 °F
Humidity 87%
Rainfall 0.00 in
Snow Depth Not available.
UV 0 out of 12
Pollen 4.20 out of 12
Air Quality Not available.
Flu Activity Sporadic
METAR KTRI 020753Z 00000KT 3SM BR SCT004 BKN006 16/16 A3003 RMK AO2 SLP147 T01610161

More Conditions Fewer Conditions

Pressure 29.97 in
Visibility 3.0 miles
Clouds Scattered Clouds 400 ft
Mostly Cloudy 600 ft
Dew Point 61 °F
Humidity 87%
Rainfall 0.00 in
Snow Depth Not available.
UV 0 out of 12
Pollen 4.20 out of 12
Air Quality Not available.
Flu Activity Sporadic
METAR KTRI 020753Z 00000KT 3SM BR SCT004 BKN006 16/16 A3003 RMK AO2 SLP147 T01610161

More Conditions Fewer Conditions

10-Day Weather Forecast

Almanac

Astronomy

Jun. 02, 2015 Rise Set
Actual Time
Civil Twilight
Nautical Twilight
Astronomical Twilight
Moon
Length of Visible Light
Length of Day
Tomorrow will be .
, % of the Moon is Illuminated

Today's Extremes

State Highs State Lows

Community

WunderPhotos

Upload Photos

1,825,895 photos uploaded!

WunderBlogs® & News

Nearby

Air Quality

  Air Quality AQ Index Pollutant
Not available.

Snow Depth

Station Depth Elevation

Earthquake Activity

City Distance Mag. Time & Date
Minimum magnitude displayed is 2.5.

Coastal Water Temperatures

Place Temperature

Stations

Nearby Weather Stations

Station Location Temp. Windchill Dew Point Humidity Wind Precip. Elev Updated Type